sensor_id;sensor_type;location;lat;lon;timestamp;temperature;humidity
17632;DHT22;8934;51.194;17.150;2023-04-25T00:01:22;8.90;99.90
17632;DHT22;8934;51.194;17.150;2023-04-25T00:04:10;8.90;99.90
17632;DHT22;8934;51.194;17.150;2023-04-25T00:06:59;8.90;99.90
17632;DHT22;8934;51.194;17.150;2023-04-25T00:09:48;8.90;99.90
17632;DHT22;8934;51.194;17.150;2023-04-25T00:12:36;8.90;99.90
17632;DHT22;8934;51.194;17.150;2023-04-25T00:15:26;8.90;99.90
17632;DHT22;8934;51.194;17.150;2023-04-25T00:18:16;8.90;99.90
17632;DHT22;8934;51.194;17.150;2023-04-25T00:21:05;8.90;99.90
17632;DHT22;8934;51.194;17.150;2023-04-25T00:23:54;8.90;99.90
17632;DHT22;8934;51.194;17.150;2023-04-25T00:26:42;8.90;99.90
17632;DHT22;8934;51.194;17.150;2023-04-25T00:29:30;8.90;99.90
17632;DHT22;8934;51.194;17.150;2023-04-25T00:32:19;8.80;99.90
17632;DHT22;8934;51.194;17.150;2023-04-25T00:35:07;8.80;99.90
17632;DHT22;8934;51.194;17.150;2023-04-25T00:37:54;8.70;99.90
17632;DHT22;8934;51.194;17.150;2023-04-25T00:40:42;8.70;99.90
17632;DHT22;8934;51.194;17.150;2023-04-25T00:43:31;8.60;99.90
17632;DHT22;8934;51.194;17.150;2023-04-25T00:46:20;8.60;99.90
17632;DHT22;8934;51.194;17.150;2023-04-25T00:49:09;8.60;99.90
17632;DHT22;8934;51.194;17.150;2023-04-25T00:52:02;8.60;99.90
17632;DHT22;8934;51.194;17.150;2023-04-25T00:54:49;8.50;99.90
17632;DHT22;8934;51.194;17.150;2023-04-25T00:57:37;8.50;99.90
17632;DHT22;8934;51.194;17.150;2023-04-25T01:00:26;8.50;99.90
17632;DHT22;8934;51.194;17.150;2023-04-25T01:03:13;8.40;99.90
17632;DHT22;8934;51.194;17.150;2023-04-25T01:06:04;8.40;99.90
17632;DHT22;8934;51.194;17.150;2023-04-25T01:08:52;8.40;99.90
17632;DHT22;8934;51.194;17.150;2023-04-25T01:11:40;8.30;99.90
17632;DHT22;8934;51.194;17.150;2023-04-25T01:14:28;8.30;99.90
17632;DHT22;8934;51.194;17.150;2023-04-25T01:17:17;8.30;99.90
17632;DHT22;8934;51.194;17.150;2023-04-25T01:20:06;8.30;99.90
17632;DHT22;8934;51.194;17.150;2023-04-25T01:22:57;8.30;99.90
17632;DHT22;8934;51.194;17.150;2023-04-25T01:25:45;8.30;99.90
17632;DHT22;8934;51.194;17.150;2023-04-25T01:28:33;8.30;99.90
17632;DHT22;8934;51.194;17.150;2023-04-25T01:31:22;8.40;99.90
17632;DHT22;8934;51.194;17.150;2023-04-25T01:34:09;8.40;99.90
17632;DHT22;8934;51.194;17.150;2023-04-25T01:36:59;8.30;99.90
17632;DHT22;8934;51.194;17.150;2023-04-25T01:39:49;8.30;99.90
17632;DHT22;8934;51.194;17.150;2023-04-25T01:42:38;8.30;99.90
17632;DHT22;8934;51.194;17.150;2023-04-25T01:45:26;8.20;99.90
17632;DHT22;8934;51.194;17.150;2023-04-25T01:48:14;8.20;99.90
17632;DHT22;8934;51.194;17.150;2023-04-25T01:51:02;8.10;99.90
17632;DHT22;8934;51.194;17.150;2023-04-25T01:53:51;8.10;99.90
17632;DHT22;8934;51.194;17.150;2023-04-25T01:56:40;8.10;99.90
17632;DHT22;8934;51.194;17.150;2023-04-25T01:59:30;8.00;99.90
17632;DHT22;8934;51.194;17.150;2023-04-25T02:02:36;8.00;99.90
17632;DHT22;8934;51.194;17.150;2023-04-25T02:05:34;7.90;99.90
17632;DHT22;8934;51.194;17.150;2023-04-25T02:08:25;7.90;99.90
17632;DHT22;8934;51.194;17.150;2023-04-25T02:11:14;7.90;99.90
17632;DHT22;8934;51.194;17.150;2023-04-25T02:14:10;7.90;99.90
17632;DHT22;8934;51.194;17.150;2023-04-25T02:17:03;7.90;99.90
17632;DHT22;8934;51.194;17.150;2023-04-25T02:19:52;7.80;99.90
17632;DHT22;8934;51.194;17.150;2023-04-25T02:22:39;7.80;99.90
17632;DHT22;8934;51.194;17.150;2023-04-25T02:25:28;7.70;99.90
17632;DHT22;8934;51.194;17.150;2023-04-25T02:28:17;7.70;99.90
17632;DHT22;8934;51.194;17.150;2023-04-25T02:31:05;7.60;99.90
17632;DHT22;8934;51.194;17.150;2023-04-25T02:33:53;7.60;99.90
17632;DHT22;8934;51.194;17.150;2023-04-25T02:36:41;7.50;99.90
17632;DHT22;8934;51.194;17.150;2023-04-25T02:39:28;7.40;99.90
17632;DHT22;8934;51.194;17.150;2023-04-25T02:42:16;7.30;99.90
17632;DHT22;8934;51.194;17.150;2023-04-25T02:45:05;7.30;99.90
17632;DHT22;8934;51.194;17.150;2023-04-25T02:47:54;7.20;99.90
17632;DHT22;8934;51.194;17.150;2023-04-25T02:50:42;7.10;99.90
17632;DHT22;8934;51.194;17.150;2023-04-25T02:53:31;7.10;99.90
17632;DHT22;8934;51.194;17.150;2023-04-25T02:56:18;7.00;99.90
17632;DHT22;8934;51.194;17.150;2023-04-25T02:59:06;7.00;99.90
17632;DHT22;8934;51.194;17.150;2023-04-25T03:01:54;7.00;99.90
17632;DHT22;8934;51.194;17.150;2023-04-25T03:04:44;6.90;99.90
17632;DHT22;8934;51.194;17.150;2023-04-25T03:07:32;6.90;99.90
17632;DHT22;8934;51.194;17.150;2023-04-25T03:10:20;6.90;99.90
17632;DHT22;8934;51.194;17.150;2023-04-25T03:13:07;6.80;99.90
17632;DHT22;8934;51.194;17.150;2023-04-25T03:15:56;6.80;99.90
17632;DHT22;8934;51.194;17.150;2023-04-25T03:18:44;6.80;99.90
17632;DHT22;8934;51.194;17.150;2023-04-25T03:21:34;6.80;99.90
17632;DHT22;8934;51.194;17.150;2023-04-25T03:24:22;6.70;99.90
17632;DHT22;8934;51.194;17.150;2023-04-25T03:27:11;6.70;99.90
17632;DHT22;8934;51.194;17.150;2023-04-25T03:29:59;6.70;99.90
17632;DHT22;8934;51.194;17.150;2023-04-25T03:32:48;6.70;99.90
17632;DHT22;8934;51.194;17.150;2023-04-25T03:35:36;6.70;99.90
17632;DHT22;8934;51.194;17.150;2023-04-25T03:38:25;6.70;99.90
17632;DHT22;8934;51.194;17.150;2023-04-25T03:41:12;6.70;99.90
17632;DHT22;8934;51.194;17.150;2023-04-25T03:44:04;6.80;99.90
17632;DHT22;8934;51.194;17.150;2023-04-25T03:46:52;6.80;99.90
17632;DHT22;8934;51.194;17.150;2023-04-25T03:49:39;6.80;99.90
17632;DHT22;8934;51.194;17.150;2023-04-25T03:52:27;6.90;99.90
17632;DHT22;8934;51.194;17.150;2023-04-25T03:55:16;6.90;99.90
17632;DHT22;8934;51.194;17.150;2023-04-25T03:58:03;6.90;99.90
17632;DHT22;8934;51.194;17.150;2023-04-25T04:00:51;6.90;99.90
17632;DHT22;8934;51.194;17.150;2023-04-25T04:03:39;6.90;99.90
17632;DHT22;8934;51.194;17.150;2023-04-25T04:06:28;6.90;99.90
17632;DHT22;8934;51.194;17.150;2023-04-25T04:09:26;7.00;99.90
17632;DHT22;8934;51.194;17.150;2023-04-25T04:12:18;7.00;99.90
17632;DHT22;8934;51.194;17.150;2023-04-25T04:15:06;7.20;99.90
17632;DHT22;8934;51.194;17.150;2023-04-25T04:17:54;7.20;99.90
17632;DHT22;8934;51.194;17.150;2023-04-25T04:20:42;7.30;99.90
17632;DHT22;8934;51.194;17.150;2023-04-25T04:23:30;7.30;99.90
17632;DHT22;8934;51.194;17.150;2023-04-25T04:26:18;7.40;99.90
17632;DHT22;8934;51.194;17.150;2023-04-25T04:29:23;7.50;99.90
17632;DHT22;8934;51.194;17.150;2023-04-25T04:32:26;7.50;99.90
17632;DHT22;8934;51.194;17.150;2023-04-25T04:35:16;7.60;99.90
17632;DHT22;8934;51.194;17.150;2023-04-25T04:38:04;7.60;99.90
17632;DHT22;8934;51.194;17.150;2023-04-25T04:40:53;7.70;99.90
17632;DHT22;8934;51.194;17.150;2023-04-25T04:43:52;7.70;99.90
17632;DHT22;8934;51.194;17.150;2023-04-25T04:46:56;7.80;99.90
17632;DHT22;8934;51.194;17.150;2023-04-25T04:50:20;7.90;99.90
17632;DHT22;8934;51.194;17.150;2023-04-25T04:53:30;7.90;99.90
17632;DHT22;8934;51.194;17.150;2023-04-25T04:56:33;8.00;99.90
17632;DHT22;8934;51.194;17.150;2023-04-25T04:59:39;8.10;99.90
17632;DHT22;8934;51.194;17.150;2023-04-25T05:03:03;8.20;99.90
17632;DHT22;8934;51.194;17.150;2023-04-25T05:06:18;8.20;99.90
17632;DHT22;8934;51.194;17.150;2023-04-25T05:09:26;8.30;99.90
17632;DHT22;8934;51.194;17.150;2023-04-25T05:12:53;8.40;99.90
17632;DHT22;8934;51.194;17.150;2023-04-25T05:15:52;8.40;99.90
17632;DHT22;8934;51.194;17.150;2023-04-25T05:18:59;8.50;99.90
17632;DHT22;8934;51.194;17.150;2023-04-25T05:22:16;8.70;99.90
17632;DHT22;8934;51.194;17.150;2023-04-25T05:25:28;8.80;99.90
17632;DHT22;8934;51.194;17.150;2023-04-25T05:28:24;8.90;99.90
17632;DHT22;8934;51.194;17.150;2023-04-25T05:31:27;9.00;99.90
17632;DHT22;8934;51.194;17.150;2023-04-25T05:34:27;9.10;99.90
17632;DHT22;8934;51.194;17.150;2023-04-25T05:37:18;9.10;99.90
17632;DHT22;8934;51.194;17.150;2023-04-25T05:40:13;9.20;99.90
17632;DHT22;8934;51.194;17.150;2023-04-25T05:43:01;9.20;99.90
17632;DHT22;8934;51.194;17.150;2023-04-25T05:46:21;9.20;99.90
17632;DHT22;8934;51.194;17.150;2023-04-25T05:49:43;9.30;99.90
17632;DHT22;8934;51.194;17.150;2023-04-25T05:52:51;9.40;99.90
17632;DHT22;8934;51.194;17.150;2023-04-25T05:55:48;9.40;99.90
17632;DHT22;8934;51.194;17.150;2023-04-25T05:58:44;9.30;99.90
17632;DHT22;8934;51.194;17.150;2023-04-25T06:01:31;9.40;99.90
17632;DHT22;8934;51.194;17.150;2023-04-25T06:04:18;9.40;99.90
17632;DHT22;8934;51.194;17.150;2023-04-25T06:07:08;9.40;99.90
17632;DHT22;8934;51.194;17.150;2023-04-25T06:09:55;9.40;99.90
17632;DHT22;8934;51.194;17.150;2023-04-25T06:12:44;9.50;99.90
17632;DHT22;8934;51.194;17.150;2023-04-25T06:15:34;9.50;99.90
17632;DHT22;8934;51.194;17.150;2023-04-25T06:18:22;9.60;99.90
17632;DHT22;8934;51.194;17.150;2023-04-25T06:21:09;9.70;99.90
17632;DHT22;8934;51.194;17.150;2023-04-25T06:23:58;9.80;99.90
17632;DHT22;8934;51.194;17.150;2023-04-25T06:26:47;9.80;99.90
17632;DHT22;8934;51.194;17.150;2023-04-25T06:29:34;9.90;99.90
17632;DHT22;8934;51.194;17.150;2023-04-25T06:32:22;10.00;99.90
17632;DHT22;8934;51.194;17.150;2023-04-25T06:35:09;10.10;99.90
17632;DHT22;8934;51.194;17.150;2023-04-25T06:37:57;10.30;99.90
17632;DHT22;8934;51.194;17.150;2023-04-25T06:40:50;10.50;99.90
17632;DHT22;8934;51.194;17.150;2023-04-25T06:43:38;10.60;99.90
17632;DHT22;8934;51.194;17.150;2023-04-25T06:46:49;10.60;99.90
17632;DHT22;8934;51.194;17.150;2023-04-25T06:49:38;10.70;99.90
17632;DHT22;8934;51.194;17.150;2023-04-25T06:52:27;10.80;99.90
17632;DHT22;8934;51.194;17.150;2023-04-25T06:55:15;10.90;99.90
17632;DHT22;8934;51.194;17.150;2023-04-25T06:58:30;11.10;99.90
17632;DHT22;8934;51.194;17.150;2023-04-25T07:01:25;11.20;99.90
17632;DHT22;8934;51.194;17.150;2023-04-25T07:04:13;11.30;99.90
17632;DHT22;8934;51.194;17.150;2023-04-25T07:07:07;11.40;99.90
17632;DHT22;8934;51.194;17.150;2023-04-25T07:10:10;11.60;99.90
17632;DHT22;8934;51.194;17.150;2023-04-25T07:12:57;11.70;99.90
17632;DHT22;8934;51.194;17.150;2023-04-25T07:15:47;11.80;99.90
17632;DHT22;8934;51.194;17.150;2023-04-25T07:18:37;12.00;99.90
17632;DHT22;8934;51.194;17.150;2023-04-25T07:21:24;12.00;99.90
17632;DHT22;8934;51.194;17.150;2023-04-25T07:24:14;12.00;99.90
17632;DHT22;8934;51.194;17.150;2023-04-25T07:27:05;11.90;99.90
17632;DHT22;8934;51.194;17.150;2023-04-25T07:30:09;12.00;99.90
17632;DHT22;8934;51.194;17.150;2023-04-25T07:32:59;12.00;99.90
17632;DHT22;8934;51.194;17.150;2023-04-25T07:35:46;12.10;99.90
17632;DHT22;8934;51.194;17.150;2023-04-25T07:38:36;12.20;99.90
17632;DHT22;8934;51.194;17.150;2023-04-25T07:41:24;12.30;99.90
17632;DHT22;8934;51.194;17.150;2023-04-25T07:44:12;12.50;99.90
17632;DHT22;8934;51.194;17.150;2023-04-25T07:46:59;12.70;99.90
17632;DHT22;8934;51.194;17.150;2023-04-25T07:49:51;12.80;99.90
17632;DHT22;8934;51.194;17.150;2023-04-25T07:52:40;12.90;99.90
17632;DHT22;8934;51.194;17.150;2023-04-25T07:55:43;13.20;99.90
17632;DHT22;8934;51.194;17.150;2023-04-25T07:58:34;13.30;99.90
17632;DHT22;8934;51.194;17.150;2023-04-25T08:01:25;13.40;99.90
17632;DHT22;8934;51.194;17.150;2023-04-25T08:04:19;13.50;99.90
17632;DHT22;8934;51.194;17.150;2023-04-25T08:07:13;13.60;99.90
17632;DHT22;8934;51.194;17.150;2023-04-25T08:10:08;13.50;99.90
17632;DHT22;8934;51.194;17.150;2023-04-25T08:12:57;13.70;99.90
17632;DHT22;8934;51.194;17.150;2023-04-25T08:15:44;14.00;99.90
17632;DHT22;8934;51.194;17.150;2023-04-25T08:18:32;14.20;99.90
17632;DHT22;8934;51.194;17.150;2023-04-25T08:21:20;14.40;99.90
17632;DHT22;8934;51.194;17.150;2023-04-25T08:24:10;14.50;99.90
17632;DHT22;8934;51.194;17.150;2023-04-25T08:26:59;14.20;99.90
17632;DHT22;8934;51.194;17.150;2023-04-25T08:29:47;14.20;99.90
17632;DHT22;8934;51.194;17.150;2023-04-25T08:32:35;14.30;99.90
17632;DHT22;8934;51.194;17.150;2023-04-25T08:35:38;14.30;99.90
17632;DHT22;8934;51.194;17.150;2023-04-25T08:38:26;14.20;99.90
17632;DHT22;8934;51.194;17.150;2023-04-25T08:41:15;14.10;99.90
17632;DHT22;8934;51.194;17.150;2023-04-25T08:44:03;13.90;99.90
17632;DHT22;8934;51.194;17.150;2023-04-25T08:46:53;13.80;99.90
17632;DHT22;8934;51.194;17.150;2023-04-25T08:49:46;13.70;99.90
17632;DHT22;8934;51.194;17.150;2023-04-25T08:52:41;13.60;99.90
17632;DHT22;8934;51.194;17.150;2023-04-25T08:55:31;13.40;99.90
17632;DHT22;8934;51.194;17.150;2023-04-25T08:58:21;13.50;99.90
17632;DHT22;8934;51.194;17.150;2023-04-25T09:01:08;13.70;99.90
17632;DHT22;8934;51.194;17.150;2023-04-25T09:04:04;13.80;99.90
17632;DHT22;8934;51.194;17.150;2023-04-25T09:06:52;13.90;99.90
17632;DHT22;8934;51.194;17.150;2023-04-25T09:09:40;13.90;99.90
17632;DHT22;8934;51.194;17.150;2023-04-25T09:12:29;13.70;99.90
17632;DHT22;8934;51.194;17.150;2023-04-25T09:15:19;13.80;99.90
17632;DHT22;8934;51.194;17.150;2023-04-25T09:18:34;13.90;99.90
17632;DHT22;8934;51.194;17.150;2023-04-25T09:21:22;14.30;99.90
17632;DHT22;8934;51.194;17.150;2023-04-25T09:24:10;14.60;99.90
17632;DHT22;8934;51.194;17.150;2023-04-25T09:26:57;14.50;99.90
17632;DHT22;8934;51.194;17.150;2023-04-25T09:29:45;14.40;99.90
17632;DHT22;8934;51.194;17.150;2023-04-25T09:32:35;14.40;99.90
17632;DHT22;8934;51.194;17.150;2023-04-25T09:35:24;14.20;99.90
17632;DHT22;8934;51.194;17.150;2023-04-25T09:38:14;14.00;99.90
17632;DHT22;8934;51.194;17.150;2023-04-25T09:41:10;13.80;99.90
17632;DHT22;8934;51.194;17.150;2023-04-25T09:44:02;14.00;99.90
17632;DHT22;8934;51.194;17.150;2023-04-25T09:46:54;14.20;99.90
17632;DHT22;8934;51.194;17.150;2023-04-25T09:49:47;14.20;99.90
17632;DHT22;8934;51.194;17.150;2023-04-25T09:52:35;14.30;99.90
17632;DHT22;8934;51.194;17.150;2023-04-25T09:55:38;14.40;99.90
17632;DHT22;8934;51.194;17.150;2023-04-25T09:58:29;14.60;99.90
17632;DHT22;8934;51.194;17.150;2023-04-25T10:01:21;15.10;99.90
17632;DHT22;8934;51.194;17.150;2023-04-25T10:04:24;15.30;99.90
17632;DHT22;8934;51.194;17.150;2023-04-25T10:07:22;15.10;99.90
17632;DHT22;8934;51.194;17.150;2023-04-25T10:10:13;14.90;99.90
17632;DHT22;8934;51.194;17.150;2023-04-25T10:13:03;14.80;99.90
17632;DHT22;8934;51.194;17.150;2023-04-25T10:15:52;14.80;99.90
17632;DHT22;8934;51.194;17.150;2023-04-25T10:18:41;14.70;99.90
17632;DHT22;8934;51.194;17.150;2023-04-25T10:21:31;14.80;99.90
17632;DHT22;8934;51.194;17.150;2023-04-25T10:24:20;14.90;99.90
17632;DHT22;8934;51.194;17.150;2023-04-25T10:27:09;15.00;99.90
17632;DHT22;8934;51.194;17.150;2023-04-25T10:30:01;15.10;99.90
17632;DHT22;8934;51.194;17.150;2023-04-25T10:32:50;15.20;99.90
17632;DHT22;8934;51.194;17.150;2023-04-25T10:35:38;15.50;99.90
17632;DHT22;8934;51.194;17.150;2023-04-25T10:38:26;15.50;99.90
17632;DHT22;8934;51.194;17.150;2023-04-25T10:41:18;15.60;99.90
17632;DHT22;8934;51.194;17.150;2023-04-25T10:44:06;15.70;99.90
17632;DHT22;8934;51.194;17.150;2023-04-25T10:46:56;15.70;99.90
17632;DHT22;8934;51.194;17.150;2023-04-25T10:49:44;15.80;99.90
17632;DHT22;8934;51.194;17.150;2023-04-25T10:52:33;16.20;99.90
17632;DHT22;8934;51.194;17.150;2023-04-25T10:55:21;16.60;99.90
17632;DHT22;8934;51.194;17.150;2023-04-25T10:58:10;16.70;99.90
17632;DHT22;8934;51.194;17.150;2023-04-25T11:00:58;16.80;99.90
17632;DHT22;8934;51.194;17.150;2023-04-25T11:03:45;16.70;99.90
17632;DHT22;8934;51.194;17.150;2023-04-25T11:06:45;16.80;99.90
17632;DHT22;8934;51.194;17.150;2023-04-25T11:09:39;16.60;99.90
17632;DHT22;8934;51.194;17.150;2023-04-25T11:12:27;16.50;99.90
17632;DHT22;8934;51.194;17.150;2023-04-25T11:15:18;16.20;99.90
17632;DHT22;8934;51.194;17.150;2023-04-25T11:18:05;15.70;99.90
17632;DHT22;8934;51.194;17.150;2023-04-25T11:20:57;15.40;99.90
17632;DHT22;8934;51.194;17.150;2023-04-25T11:23:45;15.10;99.90
17632;DHT22;8934;51.194;17.150;2023-04-25T11:26:34;14.90;99.90
17632;DHT22;8934;51.194;17.150;2023-04-25T11:29:24;14.80;99.90
17632;DHT22;8934;51.194;17.150;2023-04-25T11:32:15;14.80;99.90
17632;DHT22;8934;51.194;17.150;2023-04-25T11:35:06;14.70;99.90
17632;DHT22;8934;51.194;17.150;2023-04-25T11:37:54;14.60;99.90
17632;DHT22;8934;51.194;17.150;2023-04-25T11:40:42;14.70;99.90
17632;DHT22;8934;51.194;17.150;2023-04-25T11:43:29;14.90;99.90
17632;DHT22;8934;51.194;17.150;2023-04-25T11:46:17;15.20;99.90
17632;DHT22;8934;51.194;17.150;2023-04-25T11:49:08;15.00;99.90
17632;DHT22;8934;51.194;17.150;2023-04-25T11:51:55;15.00;99.90
17632;DHT22;8934;51.194;17.150;2023-04-25T11:54:44;14.60;99.90
17632;DHT22;8934;51.194;17.150;2023-04-25T11:57:33;14.60;99.90
17632;DHT22;8934;51.194;17.150;2023-04-25T12:00:21;14.60;99.90
17632;DHT22;8934;51.194;17.150;2023-04-25T12:03:09;14.60;99.90
17632;DHT22;8934;51.194;17.150;2023-04-25T12:06:04;14.60;99.90
17632;DHT22;8934;51.194;17.150;2023-04-25T12:09:02;14.60;99.90
17632;DHT22;8934;51.194;17.150;2023-04-25T12:11:53;14.90;99.90
17632;DHT22;8934;51.194;17.150;2023-04-25T12:14:46;15.00;99.90
17632;DHT22;8934;51.194;17.150;2023-04-25T12:17:35;15.10;99.90
17632;DHT22;8934;51.194;17.150;2023-04-25T12:20:25;15.10;99.90
17632;DHT22;8934;51.194;17.150;2023-04-25T12:23:14;15.10;99.90
17632;DHT22;8934;51.194;17.150;2023-04-25T12:26:01;15.10;99.90
17632;DHT22;8934;51.194;17.150;2023-04-25T12:28:49;15.10;99.90
17632;DHT22;8934;51.194;17.150;2023-04-25T12:31:39;15.10;99.90
17632;DHT22;8934;51.194;17.150;2023-04-25T12:34:26;15.00;99.90
17632;DHT22;8934;51.194;17.150;2023-04-25T12:37:14;14.90;99.90
17632;DHT22;8934;51.194;17.150;2023-04-25T12:40:04;14.70;99.90
17632;DHT22;8934;51.194;17.150;2023-04-25T12:42:52;14.60;99.90
17632;DHT22;8934;51.194;17.150;2023-04-25T12:45:40;14.50;99.90
17632;DHT22;8934;51.194;17.150;2023-04-25T12:48:28;14.40;99.90
17632;DHT22;8934;51.194;17.150;2023-04-25T12:51:16;14.10;99.90
17632;DHT22;8934;51.194;17.150;2023-04-25T12:54:05;13.90;99.90
17632;DHT22;8934;51.194;17.150;2023-04-25T12:56:54;14.10;99.90
17632;DHT22;8934;51.194;17.150;2023-04-25T12:59:42;14.20;99.90
17632;DHT22;8934;51.194;17.150;2023-04-25T13:02:29;14.20;99.90
17632;DHT22;8934;51.194;17.150;2023-04-25T13:05:17;14.30;99.90
17632;DHT22;8934;51.194;17.150;2023-04-25T13:08:04;14.30;99.90
17632;DHT22;8934;51.194;17.150;2023-04-25T13:10:52;14.30;99.90
17632;DHT22;8934;51.194;17.150;2023-04-25T13:13:41;14.30;99.90
17632;DHT22;8934;51.194;17.150;2023-04-25T13:16:28;14.20;99.90
17632;DHT22;8934;51.194;17.150;2023-04-25T13:19:16;14.30;99.90
17632;DHT22;8934;51.194;17.150;2023-04-25T13:22:04;14.50;99.90
17632;DHT22;8934;51.194;17.150;2023-04-25T13:24:52;14.80;99.90
17632;DHT22;8934;51.194;17.150;2023-04-25T13:27:40;14.80;99.90
17632;DHT22;8934;51.194;17.150;2023-04-25T13:30:29;14.70;99.90
17632;DHT22;8934;51.194;17.150;2023-04-25T13:33:17;14.60;99.90
17632;DHT22;8934;51.194;17.150;2023-04-25T13:36:05;14.40;99.90
17632;DHT22;8934;51.194;17.150;2023-04-25T13:38:53;14.10;99.90
17632;DHT22;8934;51.194;17.150;2023-04-25T13:41:40;13.90;99.90
17632;DHT22;8934;51.194;17.150;2023-04-25T13:44:28;13.90;99.90
17632;DHT22;8934;51.194;17.150;2023-04-25T13:47:17;13.90;99.90
17632;DHT22;8934;51.194;17.150;2023-04-25T13:50:05;13.90;99.90
17632;DHT22;8934;51.194;17.150;2023-04-25T13:52:54;13.90;99.90
17632;DHT22;8934;51.194;17.150;2023-04-25T13:55:41;13.90;99.90
17632;DHT22;8934;51.194;17.150;2023-04-25T13:58:29;13.90;99.90
17632;DHT22;8934;51.194;17.150;2023-04-25T14:01:16;13.80;99.90
17632;DHT22;8934;51.194;17.150;2023-04-25T14:04:05;13.70;99.90
17632;DHT22;8934;51.194;17.150;2023-04-25T14:06:53;13.70;99.90
17632;DHT22;8934;51.194;17.150;2023-04-25T14:09:41;14.00;99.90
17632;DHT22;8934;51.194;17.150;2023-04-25T14:12:28;14.70;99.90
17632;DHT22;8934;51.194;17.150;2023-04-25T14:15:16;15.10;99.90
17632;DHT22;8934;51.194;17.150;2023-04-25T14:18:04;15.00;99.90
17632;DHT22;8934;51.194;17.150;2023-04-25T14:20:53;14.50;99.90
17632;DHT22;8934;51.194;17.150;2023-04-25T14:23:41;14.00;99.90
17632;DHT22;8934;51.194;17.150;2023-04-25T14:26:28;13.60;99.90
17632;DHT22;8934;51.194;17.150;2023-04-25T14:29:16;13.30;99.90
17632;DHT22;8934;51.194;17.150;2023-04-25T14:32:04;13.10;99.90
17632;DHT22;8934;51.194;17.150;2023-04-25T14:34:52;12.90;99.90
17632;DHT22;8934;51.194;17.150;2023-04-25T14:37:41;12.70;99.90
17632;DHT22;8934;51.194;17.150;2023-04-25T14:40:29;12.60;99.90
17632;DHT22;8934;51.194;17.150;2023-04-25T14:43:16;12.50;99.90
17632;DHT22;8934;51.194;17.150;2023-04-25T14:46:04;12.50;99.90
17632;DHT22;8934;51.194;17.150;2023-04-25T14:48:52;12.50;99.90
17632;DHT22;8934;51.194;17.150;2023-04-25T14:51:42;12.40;99.90
17632;DHT22;8934;51.194;17.150;2023-04-25T14:54:31;12.40;99.90
17632;DHT22;8934;51.194;17.150;2023-04-25T14:57:19;12.50;99.90
17632;DHT22;8934;51.194;17.150;2023-04-25T15:00:08;12.50;99.90
17632;DHT22;8934;51.194;17.150;2023-04-25T15:02:55;12.40;99.90
17632;DHT22;8934;51.194;17.150;2023-04-25T15:05:44;12.30;99.90
17632;DHT22;8934;51.194;17.150;2023-04-25T15:08:31;12.10;99.90
17632;DHT22;8934;51.194;17.150;2023-04-25T15:11:20;12.10;99.90
17632;DHT22;8934;51.194;17.150;2023-04-25T15:14:08;12.20;99.90
17632;DHT22;8934;51.194;17.150;2023-04-25T15:16:55;12.20;99.90
17632;DHT22;8934;51.194;17.150;2023-04-25T15:19:43;12.20;99.90
17632;DHT22;8934;51.194;17.150;2023-04-25T15:22:31;12.20;99.90
17632;DHT22;8934;51.194;17.150;2023-04-25T15:25:18;12.10;99.90
17632;DHT22;8934;51.194;17.150;2023-04-25T15:28:07;12.20;99.90
17632;DHT22;8934;51.194;17.150;2023-04-25T15:30:55;12.20;99.90
17632;DHT22;8934;51.194;17.150;2023-04-25T15:33:43;12.20;99.90
17632;DHT22;8934;51.194;17.150;2023-04-25T15:36:31;12.20;99.90
17632;DHT22;8934;51.194;17.150;2023-04-25T15:39:19;12.20;99.90
17632;DHT22;8934;51.194;17.150;2023-04-25T15:42:07;12.40;99.90
17632;DHT22;8934;51.194;17.150;2023-04-25T15:44:55;12.40;99.90
17632;DHT22;8934;51.194;17.150;2023-04-25T15:47:44;12.40;99.90
17632;DHT22;8934;51.194;17.150;2023-04-25T15:50:32;12.30;99.90
17632;DHT22;8934;51.194;17.150;2023-04-25T15:53:19;12.20;99.90
17632;DHT22;8934;51.194;17.150;2023-04-25T15:56:07;12.10;99.90
17632;DHT22;8934;51.194;17.150;2023-04-25T15:58:55;11.90;99.90
17632;DHT22;8934;51.194;17.150;2023-04-25T16:01:43;11.70;99.90
17632;DHT22;8934;51.194;17.150;2023-04-25T16:04:31;11.70;99.90
17632;DHT22;8934;51.194;17.150;2023-04-25T16:07:21;11.60;99.90
17632;DHT22;8934;51.194;17.150;2023-04-25T16:10:09;11.60;99.90
17632;DHT22;8934;51.194;17.150;2023-04-25T16:12:57;11.60;99.90
17632;DHT22;8934;51.194;17.150;2023-04-25T16:15:44;11.50;99.90
17632;DHT22;8934;51.194;17.150;2023-04-25T16:18:34;11.40;99.90
17632;DHT22;8934;51.194;17.150;2023-04-25T16:21:22;11.40;99.90
17632;DHT22;8934;51.194;17.150;2023-04-25T16:24:10;11.50;99.90
17632;DHT22;8934;51.194;17.150;2023-04-25T16:26:57;11.50;99.90
17632;DHT22;8934;51.194;17.150;2023-04-25T16:29:44;11.40;99.90
17632;DHT22;8934;51.194;17.150;2023-04-25T16:32:34;11.30;99.90
17632;DHT22;8934;51.194;17.150;2023-04-25T16:35:24;11.10;99.90
17632;DHT22;8934;51.194;17.150;2023-04-25T16:38:15;11.00;99.90
17632;DHT22;8934;51.194;17.150;2023-04-25T16:41:03;11.00;99.90
17632;DHT22;8934;51.194;17.150;2023-04-25T16:43:55;11.00;99.90
17632;DHT22;8934;51.194;17.150;2023-04-25T16:46:43;10.90;99.90
17632;DHT22;8934;51.194;17.150;2023-04-25T16:49:31;10.90;99.90
17632;DHT22;8934;51.194;17.150;2023-04-25T16:52:19;10.90;99.90
17632;DHT22;8934;51.194;17.150;2023-04-25T16:55:09;10.80;99.90
17632;DHT22;8934;51.194;17.150;2023-04-25T16:57:56;10.80;99.90
17632;DHT22;8934;51.194;17.150;2023-04-25T17:00:44;10.70;99.90
17632;DHT22;8934;51.194;17.150;2023-04-25T17:03:32;10.70;99.90
17632;DHT22;8934;51.194;17.150;2023-04-25T17:06:20;10.70;99.90
17632;DHT22;8934;51.194;17.150;2023-04-25T17:09:09;10.50;99.90
17632;DHT22;8934;51.194;17.150;2023-04-25T17:11:57;10.20;99.90
17632;DHT22;8934;51.194;17.150;2023-04-25T17:14:45;9.90;99.90
17632;DHT22;8934;51.194;17.150;2023-04-25T17:17:33;9.50;99.90
17632;DHT22;8934;51.194;17.150;2023-04-25T17:20:21;9.10;99.90
17632;DHT22;8934;51.194;17.150;2023-04-25T17:23:09;8.80;99.90
17632;DHT22;8934;51.194;17.150;2023-04-25T17:25:59;8.60;99.90
17632;DHT22;8934;51.194;17.150;2023-04-25T17:28:47;8.50;99.90
17632;DHT22;8934;51.194;17.150;2023-04-25T17:31:35;8.40;99.90
17632;DHT22;8934;51.194;17.150;2023-04-25T17:34:23;8.30;99.90
17632;DHT22;8934;51.194;17.150;2023-04-25T17:37:11;8.20;99.90
17632;DHT22;8934;51.194;17.150;2023-04-25T17:40:01;8.20;99.90
17632;DHT22;8934;51.194;17.150;2023-04-25T17:42:51;8.10;99.90
17632;DHT22;8934;51.194;17.150;2023-04-25T17:45:39;8.10;99.90
17632;DHT22;8934;51.194;17.150;2023-04-25T17:48:27;8.10;99.90
17632;DHT22;8934;51.194;17.150;2023-04-25T17:51:15;8.20;99.90
17632;DHT22;8934;51.194;17.150;2023-04-25T17:54:03;8.20;99.90
17632;DHT22;8934;51.194;17.150;2023-04-25T17:56:50;8.20;99.90
17632;DHT22;8934;51.194;17.150;2023-04-25T17:59:40;8.20;99.90
17632;DHT22;8934;51.194;17.150;2023-04-25T18:02:28;8.20;99.90
17632;DHT22;8934;51.194;17.150;2023-04-25T18:05:16;8.20;99.90